sensor_id;sensor_type;location;lat;lon;timestamp;P1;durP1;ratioP1;P2;durP2;ratioP2
39300;SDS011;25019;42.626;23.380;2022-09-01T00:02:14;13.70;;;11.90;;
39300;SDS011;25019;42.626;23.380;2022-09-01T00:04:41;14.10;;;12.60;;
39300;SDS011;25019;42.626;23.380;2022-09-01T00:07:08;14.47;;;12.97;;
39300;SDS011;25019;42.626;23.380;2022-09-01T00:09:35;14.90;;;13.40;;
39300;SDS011;25019;42.626;23.380;2022-09-01T00:12:03;14.80;;;13.20;;
39300;SDS011;25019;42.626;23.380;2022-09-01T00:14:31;15.27;;;13.70;;
39300;SDS011;25019;42.626;23.380;2022-09-01T00:17:00;14.83;;;13.43;;
39300;SDS011;25019;42.626;23.380;2022-09-01T00:19:28;16.93;;;13.83;;
39300;SDS011;25019;42.626;23.380;2022-09-01T00:21:54;14.83;;;12.97;;
39300;SDS011;25019;42.626;23.380;2022-09-01T00:24:21;13.97;;;12.57;;
39300;SDS011;25019;42.626;23.380;2022-09-01T00:26:47;14.30;;;12.80;;
39300;SDS011;25019;42.626;23.380;2022-09-01T00:29:13;15.43;;;13.63;;
39300;SDS011;25019;42.626;23.380;2022-09-01T00:31:39;15.27;;;13.57;;
39300;SDS011;25019;42.626;23.380;2022-09-01T00:34:06;14.20;;;12.90;;
39300;SDS011;25019;42.626;23.380;2022-09-01T00:36:32;18.17;;;16.47;;
39300;SDS011;25019;42.626;23.380;2022-09-01T00:38:58;16.97;;;14.60;;
39300;SDS011;25019;42.626;23.380;2022-09-01T00:41:25;14.87;;;13.47;;
39300;SDS011;25019;42.626;23.380;2022-09-01T00:46:22;14.57;;;13.13;;
39300;SDS011;25019;42.626;23.380;2022-09-01T00:48:55;15.17;;;13.67;;
39300;SDS011;25019;42.626;23.380;2022-09-01T00:51:23;15.07;;;13.57;;
39300;SDS011;25019;42.626;23.380;2022-09-01T00:53:50;14.30;;;12.80;;
39300;SDS011;25019;42.626;23.380;2022-09-01T00:56:17;14.10;;;12.73;;
39300;SDS011;25019;42.626;23.380;2022-09-01T00:58:43;14.83;;;13.33;;
39300;SDS011;25019;42.626;23.380;2022-09-01T01:01:10;14.57;;;13.07;;
39300;SDS011;25019;42.626;23.380;2022-09-01T01:03:36;16.77;;;13.53;;
39300;SDS011;25019;42.626;23.380;2022-09-01T01:06:05;14.93;;;13.43;;
39300;SDS011;25019;42.626;23.380;2022-09-01T01:08:34;14.83;;;13.23;;
39300;SDS011;25019;42.626;23.380;2022-09-01T01:13:40;15.10;;;13.60;;
39300;SDS011;25019;42.626;23.380;2022-09-01T01:16:13;16.80;;;14.23;;
39300;SDS011;25019;42.626;23.380;2022-09-01T01:18:40;15.60;;;14.07;;
39300;SDS011;25019;42.626;23.380;2022-09-01T01:21:07;17.40;;;14.13;;
39300;SDS011;25019;42.626;23.380;2022-09-01T01:26:45;17.00;;;14.63;;
39300;SDS011;25019;42.626;23.380;2022-09-01T01:29:12;16.87;;;14.27;;
39300;SDS011;25019;42.626;23.380;2022-09-01T01:31:40;17.10;;;15.40;;
39300;SDS011;25019;42.626;23.380;2022-09-01T01:34:06;18.60;;;15.53;;
39300;SDS011;25019;42.626;23.380;2022-09-01T01:36:33;17.20;;;15.47;;
39300;SDS011;25019;42.626;23.380;2022-09-01T01:41:41;16.53;;;14.77;;
39300;SDS011;25019;42.626;23.380;2022-09-01T01:44:10;16.47;;;14.80;;
39300;SDS011;25019;42.626;23.380;2022-09-01T01:46:43;18.33;;;15.43;;
39300;SDS011;25019;42.626;23.380;2022-09-01T01:49:11;16.07;;;14.40;;
39300;SDS011;25019;42.626;23.380;2022-09-01T01:51:40;15.80;;;13.93;;
39300;SDS011;25019;42.626;23.380;2022-09-01T01:54:06;17.17;;;15.47;;
39300;SDS011;25019;42.626;23.380;2022-09-01T01:56:32;19.27;;;15.47;;
39300;SDS011;25019;42.626;23.380;2022-09-01T01:59:04;17.43;;;14.73;;
39300;SDS011;25019;42.626;23.380;2022-09-01T02:01:31;17.03;;;15.23;;
39300;SDS011;25019;42.626;23.380;2022-09-01T02:03:58;17.40;;;15.60;;
39300;SDS011;25019;42.626;23.380;2022-09-01T02:06:26;16.50;;;14.97;;
39300;SDS011;25019;42.626;23.380;2022-09-01T02:08:55;16.60;;;14.50;;
39300;SDS011;25019;42.626;23.380;2022-09-01T02:11:23;15.73;;;14.23;;
39300;SDS011;25019;42.626;23.380;2022-09-01T02:13:51;16.03;;;14.33;;
39300;SDS011;25019;42.626;23.380;2022-09-01T02:16:25;17.87;;;15.50;;
39300;SDS011;25019;42.626;23.380;2022-09-01T02:18:52;16.03;;;14.43;;
39300;SDS011;25019;42.626;23.380;2022-09-01T02:21:19;16.67;;;14.53;;
39300;SDS011;25019;42.626;23.380;2022-09-01T02:23:48;19.07;;;15.97;;
39300;SDS011;25019;42.626;23.380;2022-09-01T02:26:27;17.47;;;15.63;;
39300;SDS011;25019;42.626;23.380;2022-09-01T02:29:02;20.43;;;16.40;;
39300;SDS011;25019;42.626;23.380;2022-09-01T02:31:32;17.37;;;15.60;;
39300;SDS011;25019;42.626;23.380;2022-09-01T02:34:07;16.77;;;15.07;;
39300;SDS011;25019;42.626;23.380;2022-09-01T02:36:42;17.37;;;15.53;;
39300;SDS011;25019;42.626;23.380;2022-09-01T02:39:14;16.73;;;14.97;;
39300;SDS011;25019;42.626;23.380;2022-09-01T02:41:43;18.13;;;15.60;;
39300;SDS011;25019;42.626;23.380;2022-09-01T02:44:09;17.23;;;15.10;;
39300;SDS011;25019;42.626;23.380;2022-09-01T02:46:40;18.27;;;15.73;;
39300;SDS011;25019;42.626;23.380;2022-09-01T02:49:08;16.97;;;14.90;;
39300;SDS011;25019;42.626;23.380;2022-09-01T02:51:46;16.00;;;14.23;;
39300;SDS011;25019;42.626;23.380;2022-09-01T02:54:16;15.90;;;14.30;;
39300;SDS011;25019;42.626;23.380;2022-09-01T02:56:46;16.70;;;14.90;;
39300;SDS011;25019;42.626;23.380;2022-09-01T02:59:19;17.53;;;15.70;;
39300;SDS011;25019;42.626;23.380;2022-09-01T03:01:49;16.43;;;14.73;;
39300;SDS011;25019;42.626;23.380;2022-09-01T03:04:15;18.17;;;16.23;;
39300;SDS011;25019;42.626;23.380;2022-09-01T03:06:42;18.63;;;16.03;;
39300;SDS011;25019;42.626;23.380;2022-09-01T03:09:13;19.10;;;17.07;;
39300;SDS011;25019;42.626;23.380;2022-09-01T03:11:40;19.33;;;16.47;;
39300;SDS011;25019;42.626;23.380;2022-09-01T03:14:09;19.13;;;17.10;;
39300;SDS011;25019;42.626;23.380;2022-09-01T03:16:37;18.03;;;15.17;;
39300;SDS011;25019;42.626;23.380;2022-09-01T03:19:04;16.60;;;14.57;;
39300;SDS011;25019;42.626;23.380;2022-09-01T03:21:33;18.67;;;15.77;;
39300;SDS011;25019;42.626;23.380;2022-09-01T03:24:00;16.63;;;15.03;;
39300;SDS011;25019;42.626;23.380;2022-09-01T03:26:28;16.80;;;15.07;;
39300;SDS011;25019;42.626;23.380;2022-09-01T03:28:55;16.77;;;14.93;;
39300;SDS011;25019;42.626;23.380;2022-09-01T03:31:23;16.37;;;14.20;;
39300;SDS011;25019;42.626;23.380;2022-09-01T03:33:54;15.80;;;14.17;;
39300;SDS011;25019;42.626;23.380;2022-09-01T03:36:26;16.20;;;14.10;;
39300;SDS011;25019;42.626;23.380;2022-09-01T03:38:53;15.87;;;13.87;;
39300;SDS011;25019;42.626;23.380;2022-09-01T03:41:22;14.60;;;13.07;;
39300;SDS011;25019;42.626;23.380;2022-09-01T03:43:49;16.07;;;14.27;;
39300;SDS011;25019;42.626;23.380;2022-09-01T03:46:20;17.13;;;14.03;;
39300;SDS011;25019;42.626;23.380;2022-09-01T03:48:47;14.70;;;13.27;;
39300;SDS011;25019;42.626;23.380;2022-09-01T03:51:15;14.53;;;13.03;;
39300;SDS011;25019;42.626;23.380;2022-09-01T03:53:41;15.20;;;13.70;;
39300;SDS011;25019;42.626;23.380;2022-09-01T03:56:08;16.27;;;14.20;;
39300;SDS011;25019;42.626;23.380;2022-09-01T03:58:34;16.63;;;13.63;;
39300;SDS011;25019;42.626;23.380;2022-09-01T04:01:00;14.87;;;13.33;;
39300;SDS011;25019;42.626;23.380;2022-09-01T04:03:29;15.77;;;14.07;;
39300;SDS011;25019;42.626;23.380;2022-09-01T04:05:58;14.27;;;12.80;;
39300;SDS011;25019;42.626;23.380;2022-09-01T04:08:25;16.43;;;12.97;;
39300;SDS011;25019;42.626;23.380;2022-09-01T04:10:57;15.17;;;13.40;;
39300;SDS011;25019;42.626;23.380;2022-09-01T04:13:30;14.77;;;13.33;;
39300;SDS011;25019;42.626;23.380;2022-09-01T04:15:58;14.90;;;12.67;;
39300;SDS011;25019;42.626;23.380;2022-09-01T04:18:27;14.23;;;12.83;;
39300;SDS011;25019;42.626;23.380;2022-09-01T04:20:55;16.43;;;13.27;;
39300;SDS011;25019;42.626;23.380;2022-09-01T04:23:26;14.23;;;12.50;;
39300;SDS011;25019;42.626;23.380;2022-09-01T04:26:08;15.17;;;13.57;;
39300;SDS011;25019;42.626;23.380;2022-09-01T04:28:56;14.73;;;13.23;;
39300;SDS011;25019;42.626;23.380;2022-09-01T04:31:22;17.20;;;15.10;;
39300;SDS011;25019;42.626;23.380;2022-09-01T04:33:50;15.20;;;13.60;;
39300;SDS011;25019;42.626;23.380;2022-09-01T04:38:50;16.07;;;14.47;;
39300;SDS011;25019;42.626;23.380;2022-09-01T04:41:29;16.03;;;14.30;;
39300;SDS011;25019;42.626;23.380;2022-09-01T04:43:59;15.10;;;13.63;;
39300;SDS011;25019;42.626;23.380;2022-09-01T04:46:33;15.63;;;14.03;;
39300;SDS011;25019;42.626;23.380;2022-09-01T04:49:03;16.03;;;14.17;;
39300;SDS011;25019;42.626;23.380;2022-09-01T04:51:41;15.03;;;13.50;;
39300;SDS011;25019;42.626;23.380;2022-09-01T04:54:10;15.83;;;13.77;;
39300;SDS011;25019;42.626;23.380;2022-09-01T04:56:44;13.33;;;12.07;;
39300;SDS011;25019;42.626;23.380;2022-09-01T04:59:15;13.77;;;12.30;;
39300;SDS011;25019;42.626;23.380;2022-09-01T05:01:45;15.70;;;11.77;;
39300;SDS011;25019;42.626;23.380;2022-09-01T05:04:15;16.30;;;11.23;;
39300;SDS011;25019;42.626;23.380;2022-09-01T05:06:45;12.50;;;10.60;;
39300;SDS011;25019;42.626;23.380;2022-09-01T05:09:14;12.63;;;10.47;;
39300;SDS011;25019;42.626;23.380;2022-09-01T05:11:52;12.20;;;10.63;;
39300;SDS011;25019;42.626;23.380;2022-09-01T05:14:24;12.17;;;10.83;;
39300;SDS011;25019;42.626;23.380;2022-09-01T05:16:55;12.00;;;9.97;;
39300;SDS011;25019;42.626;23.380;2022-09-01T05:19:24;10.53;;;9.43;;
39300;SDS011;25019;42.626;23.380;2022-09-01T05:21:53;11.47;;;9.03;;
39300;SDS011;25019;42.626;23.380;2022-09-01T05:24:22;9.97;;;9.00;;
39300;SDS011;25019;42.626;23.380;2022-09-01T05:26:51;13.30;;;8.97;;
39300;SDS011;25019;42.626;23.380;2022-09-01T05:29:17;10.73;;;8.97;;
39300;SDS011;25019;42.626;23.380;2022-09-01T05:31:46;10.10;;;9.17;;
39300;SDS011;25019;42.626;23.380;2022-09-01T05:34:13;10.90;;;9.03;;
39300;SDS011;25019;42.626;23.380;2022-09-01T05:36:51;10.60;;;9.17;;
39300;SDS011;25019;42.626;23.380;2022-09-01T05:39:22;10.27;;;9.07;;
39300;SDS011;25019;42.626;23.380;2022-09-01T05:41:49;9.83;;;8.87;;
39300;SDS011;25019;42.626;23.380;2022-09-01T05:44:16;9.73;;;8.80;;
39300;SDS011;25019;42.626;23.380;2022-09-01T05:46:43;11.30;;;9.80;;
39300;SDS011;25019;42.626;23.380;2022-09-01T05:49:09;12.07;;;10.13;;
39300;SDS011;25019;42.626;23.380;2022-09-01T05:51:39;11.10;;;10.00;;
39300;SDS011;25019;42.626;23.380;2022-09-01T05:54:07;15.83;;;14.10;;
39300;SDS011;25019;42.626;23.380;2022-09-01T05:56:36;16.57;;;14.83;;
39300;SDS011;25019;42.626;23.380;2022-09-01T05:59:04;17.20;;;15.40;;
39300;SDS011;25019;42.626;23.380;2022-09-01T06:01:30;19.00;;;15.87;;
39300;SDS011;25019;42.626;23.380;2022-09-01T06:04:00;18.20;;;15.97;;
39300;SDS011;25019;42.626;23.380;2022-09-01T06:06:42;19.63;;;16.97;;
39300;SDS011;25019;42.626;23.380;2022-09-01T06:09:12;23.20;;;17.73;;
39300;SDS011;25019;42.626;23.380;2022-09-01T06:11:40;27.60;;;19.00;;
39300;SDS011;25019;42.626;23.380;2022-09-01T06:14:06;26.27;;;20.10;;
39300;SDS011;25019;42.626;23.380;2022-09-01T06:16:35;25.40;;;21.00;;
39300;SDS011;25019;42.626;23.380;2022-09-01T06:19:02;27.27;;;20.30;;
39300;SDS011;25019;42.626;23.380;2022-09-01T06:21:31;24.80;;;19.97;;
39300;SDS011;25019;42.626;23.380;2022-09-01T06:23:57;25.57;;;21.60;;
39300;SDS011;25019;42.626;23.380;2022-09-01T06:26:25;30.60;;;21.77;;
39300;SDS011;25019;42.626;23.380;2022-09-01T06:28:56;26.33;;;21.17;;
39300;SDS011;25019;42.626;23.380;2022-09-01T06:31:25;27.00;;;19.97;;
39300;SDS011;25019;42.626;23.380;2022-09-01T06:34:01;24.73;;;19.30;;
39300;SDS011;25019;42.626;23.380;2022-09-01T06:36:28;24.17;;;20.33;;
39300;SDS011;25019;42.626;23.380;2022-09-01T06:38:56;26.33;;;19.73;;
39300;SDS011;25019;42.626;23.380;2022-09-01T06:41:26;28.57;;;20.47;;
39300;SDS011;25019;42.626;23.380;2022-09-01T06:43:53;28.10;;;20.23;;
39300;SDS011;25019;42.626;23.380;2022-09-01T06:46:20;27.70;;;19.97;;
39300;SDS011;25019;42.626;23.380;2022-09-01T06:48:47;29.40;;;21.90;;
39300;SDS011;25019;42.626;23.380;2022-09-01T06:51:17;25.77;;;21.67;;
39300;SDS011;25019;42.626;23.380;2022-09-01T06:53:47;24.27;;;19.47;;
39300;SDS011;25019;42.626;23.380;2022-09-01T06:56:21;25.77;;;21.17;;
39300;SDS011;25019;42.626;23.380;2022-09-01T06:58:50;26.20;;;22.23;;
39300;SDS011;25019;42.626;23.380;2022-09-01T07:01:17;30.60;;;22.27;;
39300;SDS011;25019;42.626;23.380;2022-09-01T07:03:47;26.80;;;22.53;;
39300;SDS011;25019;42.626;23.380;2022-09-01T07:06:23;27.63;;;22.33;;
39300;SDS011;25019;42.626;23.380;2022-09-01T07:09:12;28.03;;;21.90;;
39300;SDS011;25019;42.626;23.380;2022-09-01T07:11:40;27.43;;;21.97;;
39300;SDS011;25019;42.626;23.380;2022-09-01T07:14:06;29.53;;;22.90;;
39300;SDS011;25019;42.626;23.380;2022-09-01T07:16:34;28.03;;;23.53;;
39300;SDS011;25019;42.626;23.380;2022-09-01T07:19:06;27.03;;;22.70;;
39300;SDS011;25019;42.626;23.380;2022-09-01T07:21:43;25.83;;;21.77;;
39300;SDS011;25019;42.626;23.380;2022-09-01T07:24:11;29.13;;;24.27;;
39300;SDS011;25019;42.626;23.380;2022-09-01T07:26:48;30.93;;;24.00;;
39300;SDS011;25019;42.626;23.380;2022-09-01T07:29:15;27.33;;;23.97;;
39300;SDS011;25019;42.626;23.380;2022-09-01T07:31:46;35.53;;;24.97;;
39300;SDS011;25019;42.626;23.380;2022-09-01T07:34:12;27.97;;;24.97;;
39300;SDS011;25019;42.626;23.380;2022-09-01T07:36:41;26.70;;;23.77;;
39300;SDS011;25019;42.626;23.380;2022-09-01T07:39:09;29.83;;;24.77;;
39300;SDS011;25019;42.626;23.380;2022-09-01T07:41:35;30.50;;;24.23;;
39300;SDS011;25019;42.626;23.380;2022-09-01T07:44:24;30.73;;;23.70;;
39300;SDS011;25019;42.626;23.380;2022-09-01T07:47:23;26.27;;;21.70;;
39300;SDS011;25019;42.626;23.380;2022-09-01T07:49:48;29.33;;;21.33;;
39300;SDS011;25019;42.626;23.380;2022-09-01T07:52:14;27.43;;;22.17;;
39300;SDS011;25019;42.626;23.380;2022-09-01T07:54:42;25.70;;;21.67;;
39300;SDS011;25019;42.626;23.380;2022-09-01T07:57:08;26.60;;;22.20;;
39300;SDS011;25019;42.626;23.380;2022-09-01T07:59:34;27.60;;;21.77;;
39300;SDS011;25019;42.626;23.380;2022-09-01T08:02:07;24.07;;;21.33;;
39300;SDS011;25019;42.626;23.380;2022-09-01T08:04:34;23.23;;;20.93;;
39300;SDS011;25019;42.626;23.380;2022-09-01T08:07:02;24.60;;;19.10;;
39300;SDS011;25019;42.626;23.380;2022-09-01T08:09:28;18.77;;;16.80;;
39300;SDS011;25019;42.626;23.380;2022-09-01T08:11:54;22.30;;;19.50;;
39300;SDS011;25019;42.626;23.380;2022-09-01T08:14:20;19.17;;;17.13;;
39300;SDS011;25019;42.626;23.380;2022-09-01T08:16:46;20.53;;;18.43;;
39300;SDS011;25019;42.626;23.380;2022-09-01T08:19:13;21.13;;;18.30;;
39300;SDS011;25019;42.626;23.380;2022-09-01T08:22:02;21.30;;;18.47;;
39300;SDS011;25019;42.626;23.380;2022-09-01T08:24:39;22.23;;;18.17;;
39300;SDS011;25019;42.626;23.380;2022-09-01T08:27:04;20.40;;;17.17;;
39300;SDS011;25019;42.626;23.380;2022-09-01T08:29:30;19.40;;;17.30;;
39300;SDS011;25019;42.626;23.380;2022-09-01T08:31:57;22.80;;;17.80;;
39300;SDS011;25019;42.626;23.380;2022-09-01T08:34:26;21.10;;;17.47;;
39300;SDS011;25019;42.626;23.380;2022-09-01T08:36:52;17.60;;;15.63;;
39300;SDS011;25019;42.626;23.380;2022-09-01T08:39:18;22.93;;;19.53;;
39300;SDS011;25019;42.626;23.380;2022-09-01T08:41:54;20.47;;;17.67;;
39300;SDS011;25019;42.626;23.380;2022-09-01T08:44:43;19.63;;;16.83;;
39300;SDS011;25019;42.626;23.380;2022-09-01T08:47:18;19.40;;;15.77;;
39300;SDS011;25019;42.626;23.380;2022-09-01T08:49:45;21.70;;;17.17;;
39300;SDS011;25019;42.626;23.380;2022-09-01T08:55:02;19.73;;;16.13;;
39300;SDS011;25019;42.626;23.380;2022-09-01T08:57:35;16.70;;;14.90;;
39300;SDS011;25019;42.626;23.380;2022-09-01T09:00:19;17.93;;;15.90;;
39300;SDS011;25019;42.626;23.380;2022-09-01T09:16:46;18.90;;;14.40;;
39300;SDS011;25019;42.626;23.380;2022-09-01T09:21:59;19.63;;;15.27;;
39300;SDS011;25019;42.626;23.380;2022-09-01T09:27:25;23.37;;;16.97;;
39300;SDS011;25019;42.626;23.380;2022-09-01T09:29:56;17.43;;;15.60;;
39300;SDS011;25019;42.626;23.380;2022-09-01T09:32:41;20.20;;;15.93;;
39300;SDS011;25019;42.626;23.380;2022-09-01T09:35:18;18.30;;;15.43;;
39300;SDS011;25019;42.626;23.380;2022-09-01T09:40:36;19.80;;;16.27;;
39300;SDS011;25019;42.626;23.380;2022-09-01T09:43:03;18.83;;;16.07;;
39300;SDS011;25019;42.626;23.380;2022-09-01T09:45:38;19.93;;;15.80;;
39300;SDS011;25019;42.626;23.380;2022-09-01T09:48:26;16.80;;;14.63;;
39300;SDS011;25019;42.626;23.380;2022-09-01T09:50:52;15.57;;;13.93;;
39300;SDS011;25019;42.626;23.380;2022-09-01T09:58:37;14.90;;;13.30;;
39300;SDS011;25019;42.626;23.380;2022-09-01T10:03:36;14.77;;;13.20;;
39300;SDS011;25019;42.626;23.380;2022-09-01T10:06:08;14.57;;;12.83;;
39300;SDS011;25019;42.626;23.380;2022-09-01T10:08:45;17.40;;;13.17;;
39300;SDS011;25019;42.626;23.380;2022-09-01T10:11:25;14.47;;;13.07;;
39300;SDS011;25019;42.626;23.380;2022-09-01T10:13:54;15.23;;;11.93;;
39300;SDS011;25019;42.626;23.380;2022-09-01T10:16:24;13.33;;;12.03;;
39300;SDS011;25019;42.626;23.380;2022-09-01T10:18:54;13.63;;;12.30;;
39300;SDS011;25019;42.626;23.380;2022-09-01T10:21:44;14.67;;;12.20;;
39300;SDS011;25019;42.626;23.380;2022-09-01T10:26:38;11.80;;;10.27;;
39300;SDS011;25019;42.626;23.380;2022-09-01T10:29:14;12.33;;;10.43;;
39300;SDS011;25019;42.626;23.380;2022-09-01T10:31:45;14.50;;;10.90;;
39300;SDS011;25019;42.626;23.380;2022-09-01T10:34:12;14.23;;;10.77;;
39300;SDS011;25019;42.626;23.380;2022-09-01T10:36:43;14.00;;;10.53;;
39300;SDS011;25019;42.626;23.380;2022-09-01T10:39:11;12.13;;;10.43;;
39300;SDS011;25019;42.626;23.380;2022-09-01T10:44:10;11.27;;;10.07;;
39300;SDS011;25019;42.626;23.380;2022-09-01T10:46:44;11.33;;;10.00;;
39300;SDS011;25019;42.626;23.380;2022-09-01T10:49:18;13.10;;;10.63;;
39300;SDS011;25019;42.626;23.380;2022-09-01T10:51:47;11.47;;;10.20;;
39300;SDS011;25019;42.626;23.380;2022-09-01T10:57:07;14.83;;;11.13;;
39300;SDS011;25019;42.626;23.380;2022-09-01T10:59:36;13.33;;;10.97;;
39300;SDS011;25019;42.626;23.380;2022-09-01T11:07:49;12.83;;;11.03;;
39300;SDS011;25019;42.626;23.380;2022-09-01T11:10:16;12.27;;;10.03;;
39300;SDS011;25019;42.626;23.380;2022-09-01T11:13:08;17.40;;;11.17;;
39300;SDS011;25019;42.626;23.380;2022-09-01T11:18:53;12.63;;;11.37;;
39300;SDS011;25019;42.626;23.380;2022-09-01T11:21:23;11.43;;;10.07;;
39300;SDS011;25019;42.626;23.380;2022-09-01T11:24:42;11.13;;;9.97;;
39300;SDS011;25019;42.626;23.380;2022-09-01T11:26:56;14.57;;;9.87;;
39300;SDS011;25019;42.626;23.380;2022-09-01T11:32:17;12.93;;;10.87;;
39300;SDS011;25019;42.626;23.380;2022-09-01T11:34:49;12.43;;;10.23;;
39300;SDS011;25019;42.626;23.380;2022-09-01T11:37:19;12.90;;;10.13;;
39300;SDS011;25019;42.626;23.380;2022-09-01T11:39:47;13.80;;;11.07;;
39300;SDS011;25019;42.626;23.380;2022-09-01T11:42:18;13.40;;;10.77;;
39300;SDS011;25019;42.626;23.380;2022-09-01T11:44:51;11.57;;;10.37;;
39300;SDS011;25019;42.626;23.380;2022-09-01T11:47:28;11.33;;;10.23;;
39300;SDS011;25019;42.626;23.380;2022-09-01T11:49:56;12.60;;;10.37;;
39300;SDS011;25019;42.626;23.380;2022-09-01T11:52:29;11.87;;;10.43;;
39300;SDS011;25019;42.626;23.380;2022-09-01T11:54:58;12.07;;;10.77;;
39300;SDS011;25019;42.626;23.380;2022-09-01T11:57:28;15.20;;;13.43;;
39300;SDS011;25019;42.626;23.380;2022-09-01T11:59:57;12.73;;;11.10;;
39300;SDS011;25019;42.626;23.380;2022-09-01T12:02:26;13.23;;;11.83;;
39300;SDS011;25019;42.626;23.380;2022-09-01T12:04:54;14.57;;;11.30;;
39300;SDS011;25019;42.626;23.380;2022-09-01T12:07:29;13.30;;;10.37;;
39300;SDS011;25019;42.626;23.380;2022-09-01T12:09:57;12.20;;;10.77;;
39300;SDS011;25019;42.626;23.380;2022-09-01T12:17:28;13.77;;;11.30;;
39300;SDS011;25019;42.626;23.380;2022-09-01T12:19:53;13.10;;;11.27;;
39300;SDS011;25019;42.626;23.380;2022-09-01T12:22:19;12.60;;;10.80;;
39300;SDS011;25019;42.626;23.380;2022-09-01T12:24:48;13.37;;;11.83;;
39300;SDS011;25019;42.626;23.380;2022-09-01T12:27:17;14.30;;;11.60;;
39300;SDS011;25019;42.626;23.380;2022-09-01T12:29:43;13.83;;;10.83;;
39300;SDS011;25019;42.626;23.380;2022-09-01T12:32:10;15.33;;;11.70;;
39300;SDS011;25019;42.626;23.380;2022-09-01T12:34:42;12.23;;;10.90;;
39300;SDS011;25019;42.626;23.380;2022-09-01T12:37:24;17.03;;;11.20;;
39300;SDS011;25019;42.626;23.380;2022-09-01T12:39:51;13.70;;;11.87;;
39300;SDS011;25019;42.626;23.380;2022-09-01T12:42:28;13.30;;;11.30;;
39300;SDS011;25019;42.626;23.380;2022-09-01T12:45:13;14.07;;;11.40;;
39300;SDS011;25019;42.626;23.380;2022-09-01T12:48:31;12.97;;;11.13;;
39300;SDS011;25019;42.626;23.380;2022-09-01T12:51:02;14.67;;;11.30;;
39300;SDS011;25019;42.626;23.380;2022-09-01T12:53:51;12.80;;;11.33;;
39300;SDS011;25019;42.626;23.380;2022-09-01T12:56:20;13.90;;;12.00;;
39300;SDS011;25019;42.626;23.380;2022-09-01T12:59:02;14.57;;;12.37;;
39300;SDS011;25019;42.626;23.380;2022-09-01T13:01:37;15.70;;;11.97;;
39300;SDS011;25019;42.626;23.380;2022-09-01T13:06:39;13.53;;;12.13;;
39300;SDS011;25019;42.626;23.380;2022-09-01T13:09:11;16.80;;;11.87;;
39300;SDS011;25019;42.626;23.380;2022-09-01T13:11:37;12.70;;;11.43;;
39300;SDS011;25019;42.626;23.380;2022-09-01T13:14:03;15.10;;;11.63;;
39300;SDS011;25019;42.626;23.380;2022-09-01T13:16:29;15.67;;;11.97;;
39300;SDS011;25019;42.626;23.380;2022-09-01T13:18:55;13.27;;;11.40;;
39300;SDS011;25019;42.626;23.380;2022-09-01T13:21:20;16.93;;;11.50;;
39300;SDS011;25019;42.626;23.380;2022-09-01T13:23:46;16.37;;;11.63;;
39300;SDS011;25019;42.626;23.380;2022-09-01T13:26:13;13.50;;;11.87;;
39300;SDS011;25019;42.626;23.380;2022-09-01T13:28:39;14.23;;;11.80;;
39300;SDS011;25019;42.626;23.380;2022-09-01T13:31:05;14.80;;;11.17;;
39300;SDS011;25019;42.626;23.380;2022-09-01T13:33:31;17.03;;;12.60;;
39300;SDS011;25019;42.626;23.380;2022-09-01T13:35:58;18.13;;;13.23;;
39300;SDS011;25019;42.626;23.380;2022-09-01T13:38:25;21.97;;;15.23;;
39300;SDS011;25019;42.626;23.380;2022-09-01T13:40:53;20.03;;;15.20;;
39300;SDS011;25019;42.626;23.380;2022-09-01T13:43:19;16.27;;;14.57;;
39300;SDS011;25019;42.626;23.380;2022-09-01T13:45:47;15.87;;;14.17;;
39300;SDS011;25019;42.626;23.380;2022-09-01T13:48:14;16.60;;;15.00;;
39300;SDS011;25019;42.626;23.380;2022-09-01T13:50:41;17.63;;;15.93;;
39300;SDS011;25019;42.626;23.380;2022-09-01T13:53:07;17.83;;;15.93;;
39300;SDS011;25019;42.626;23.380;2022-09-01T13:55:34;17.67;;;15.77;;
39300;SDS011;25019;42.626;23.380;2022-09-01T13:58:03;14.87;;;12.90;;
39300;SDS011;25019;42.626;23.380;2022-09-01T14:00:29;13.10;;;11.80;;
39300;SDS011;25019;42.626;23.380;2022-09-01T14:02:59;15.00;;;12.07;;
39300;SDS011;25019;42.626;23.380;2022-09-01T14:05:27;13.77;;;12.37;;
39300;SDS011;25019;42.626;23.380;2022-09-01T14:07:55;14.17;;;12.77;;
39300;SDS011;25019;42.626;23.380;2022-09-01T14:10:22;14.93;;;13.37;;
39300;SDS011;25019;42.626;23.380;2022-09-01T14:12:49;15.10;;;13.50;;
39300;SDS011;25019;42.626;23.380;2022-09-01T14:15:16;15.03;;;13.63;;
39300;SDS011;25019;42.626;23.380;2022-09-01T14:17:49;13.87;;;12.50;;
39300;SDS011;25019;42.626;23.380;2022-09-01T14:20:20;15.67;;;13.87;;
39300;SDS011;25019;42.626;23.380;2022-09-01T14:22:47;15.93;;;14.30;;
39300;SDS011;25019;42.626;23.380;2022-09-01T14:25:15;16.67;;;14.97;;
39300;SDS011;25019;42.626;23.380;2022-09-01T14:27:41;16.20;;;14.60;;
39300;SDS011;25019;42.626;23.380;2022-09-01T14:30:08;16.13;;;14.43;;
39300;SDS011;25019;42.626;23.380;2022-09-01T14:32:36;17.43;;;14.77;;
39300;SDS011;25019;42.626;23.380;2022-09-01T14:35:04;15.23;;;13.73;;
39300;SDS011;25019;42.626;23.380;2022-09-01T14:37:32;16.40;;;14.80;;
39300;SDS011;25019;42.626;23.380;2022-09-01T14:39:59;17.37;;;15.40;;
39300;SDS011;25019;42.626;23.380;2022-09-01T14:42:24;15.90;;;14.30;;
39300;SDS011;25019;42.626;23.380;2022-09-01T14:44:52;16.63;;;15.00;;
39300;SDS011;25019;42.626;23.380;2022-09-01T14:47:18;17.07;;;15.37;;
39300;SDS011;25019;42.626;23.380;2022-09-01T14:49:52;17.30;;;15.40;;
39300;SDS011;25019;42.626;23.380;2022-09-01T14:52:18;15.80;;;14.30;;
39300;SDS011;25019;42.626;23.380;2022-09-01T14:54:46;16.13;;;14.67;;
39300;SDS011;25019;42.626;23.380;2022-09-01T14:57:12;16.57;;;14.13;;
39300;SDS011;25019;42.626;23.380;2022-09-01T14:59:38;16.13;;;14.53;;
39300;SDS011;25019;42.626;23.380;2022-09-01T15:02:06;16.80;;;15.17;;
39300;SDS011;25019;42.626;23.380;2022-09-01T15:04:32;15.93;;;14.53;;
39300;SDS011;25019;42.626;23.380;2022-09-01T15:06:58;16.83;;;15.23;;
39300;SDS011;25019;42.626;23.380;2022-09-01T15:09:24;17.23;;;15.63;;
39300;SDS011;25019;42.626;23.380;2022-09-01T15:11:50;15.60;;;14.10;;
39300;SDS011;25019;42.626;23.380;2022-09-01T15:14:16;17.83;;;15.30;;
39300;SDS011;25019;42.626;23.380;2022-09-01T15:16:42;16.73;;;15.00;;
39300;SDS011;25019;42.626;23.380;2022-09-01T15:19:08;16.70;;;15.10;;
39300;SDS011;25019;42.626;23.380;2022-09-01T15:21:35;16.77;;;15.13;;
39300;SDS011;25019;42.626;23.380;2022-09-01T15:24:02;17.77;;;15.37;;
39300;SDS011;25019;42.626;23.380;2022-09-01T15:26:28;19.37;;;14.50;;
39300;SDS011;25019;42.626;23.380;2022-09-01T15:28:54;15.83;;;14.13;;
39300;SDS011;25019;42.626;23.380;2022-09-01T15:31:24;16.57;;;14.83;;
39300;SDS011;25019;42.626;23.380;2022-09-01T15:33:53;17.10;;;15.30;;
39300;SDS011;25019;42.626;23.380;2022-09-01T15:36:21;16.13;;;14.57;;
39300;SDS011;25019;42.626;23.380;2022-09-01T15:38:48;17.53;;;15.73;;